Terminal Aerodrome Forecast
Issued by NWS Louisville, KY

Home | Current Version | Previous Version | Text Only | Print | Product List | Glossary On
Versions: 1 2 3 4 5 6 7 8 9 10 11 12 13 14 15 16
000
FTUS43 KLMK 281700
TAFSDF
TAF
KSDF 281722Z 2818/2924 35007KT P6SM OVC012
     FM290200 36005KT P6SM BKN022
     FM291700 03006KT P6SM SCT025 BKN250=

USA.gov is the U.S. government's official web portal to all federal, state and local government web resources and services.